sensor_id;sensor_type;location;lat;lon;timestamp;noise_LAeq;noise_LA_min;noise_LA_max;noise_LA01;noise_LA95
74260;Laerm;62630;55.874;37.516;2023-04-25T00:00:33;49.41;44.68;58.75;;
74260;Laerm;62630;55.874;37.516;2023-04-25T00:02:58;48.55;44.90;54.45;;
74260;Laerm;62630;55.874;37.516;2023-04-25T00:05:26;57.03;44.28;70.89;;
74260;Laerm;62630;55.874;37.516;2023-04-25T00:07:51;48.76;44.34;56.05;;
74260;Laerm;62630;55.874;37.516;2023-04-25T00:10:17;53.48;44.62;67.90;;
74260;Laerm;62630;55.874;37.516;2023-04-25T00:12:43;48.59;44.40;52.86;;
74260;Laerm;62630;55.874;37.516;2023-04-25T00:15:09;49.48;44.84;57.48;;
74260;Laerm;62630;55.874;37.516;2023-04-25T00:17:35;49.07;44.82;54.36;;
74260;Laerm;62630;55.874;37.516;2023-04-25T00:20:04;53.65;45.18;68.13;;
74260;Laerm;62630;55.874;37.516;2023-04-25T00:22:34;54.37;44.31;70.68;;
74260;Laerm;62630;55.874;37.516;2023-04-25T00:25:03;50.33;44.27;60.85;;
74260;Laerm;62630;55.874;37.516;2023-04-25T00:27:29;48.24;44.39;52.12;;
74260;Laerm;62630;55.874;37.516;2023-04-25T00:29:54;48.04;43.36;54.43;;
74260;Laerm;62630;55.874;37.516;2023-04-25T00:32:20;54.85;44.11;69.22;;
74260;Laerm;62630;55.874;37.516;2023-04-25T00:34:45;66.32;46.58;86.23;;
74260;Laerm;62630;55.874;37.516;2023-04-25T00:37:11;66.97;44.81;83.20;;
74260;Laerm;62630;55.874;37.516;2023-04-25T00:39:36;65.97;44.71;85.11;;
74260;Laerm;62630;55.874;37.516;2023-04-25T00:42:02;70.53;45.03;96.03;;
74260;Laerm;62630;55.874;37.516;2023-04-25T00:44:29;48.52;44.07;56.90;;
74260;Laerm;62630;55.874;37.516;2023-04-25T00:46:56;47.62;43.65;53.66;;
74260;Laerm;62630;55.874;37.516;2023-04-25T00:49:22;53.17;43.82;66.68;;
74260;Laerm;62630;55.874;37.516;2023-04-25T00:51:48;52.81;44.77;67.09;;
74260;Laerm;62630;55.874;37.516;2023-04-25T00:54:14;49.06;44.79;58.53;;
74260;Laerm;62630;55.874;37.516;2023-04-25T00:56:40;51.95;43.23;66.63;;
74260;Laerm;62630;55.874;37.516;2023-04-25T00:59:06;55.29;43.54;74.51;;
74260;Laerm;62630;55.874;37.516;2023-04-25T01:01:31;52.56;44.42;65.10;;
74260;Laerm;62630;55.874;37.516;2023-04-25T01:03:58;51.50;43.50;65.14;;
74260;Laerm;62630;55.874;37.516;2023-04-25T01:06:24;51.84;44.82;64.64;;
74260;Laerm;62630;55.874;37.516;2023-04-25T01:08:51;55.34;44.84;67.39;;
74260;Laerm;62630;55.874;37.516;2023-04-25T01:11:17;51.67;44.63;65.41;;
74260;Laerm;62630;55.874;37.516;2023-04-25T01:13:42;57.06;43.77;67.94;;
74260;Laerm;62630;55.874;37.516;2023-04-25T01:16:08;56.01;45.22;67.67;;
74260;Laerm;62630;55.874;37.516;2023-04-25T01:18:34;52.96;45.35;64.06;;
74260;Laerm;62630;55.874;37.516;2023-04-25T01:21:10;53.16;45.68;68.06;;
74260;Laerm;62630;55.874;37.516;2023-04-25T01:23:42;54.74;43.90;71.68;;
74260;Laerm;62630;55.874;37.516;2023-04-25T01:26:09;47.76;42.70;62.02;;
74260;Laerm;62630;55.874;37.516;2023-04-25T01:28:36;50.10;44.76;60.44;;
74260;Laerm;62630;55.874;37.516;2023-04-25T01:31:02;48.60;44.02;58.56;;
74260;Laerm;62630;55.874;37.516;2023-04-25T01:33:29;54.71;46.51;69.58;;
74260;Laerm;62630;55.874;37.516;2023-04-25T01:35:55;51.77;45.43;62.36;;
74260;Laerm;62630;55.874;37.516;2023-04-25T01:38:20;56.77;47.73;72.64;;
74260;Laerm;62630;55.874;37.516;2023-04-25T01:40:46;58.38;49.60;72.50;;
74260;Laerm;62630;55.874;37.516;2023-04-25T01:43:14;61.43;46.10;79.39;;
74260;Laerm;62630;55.874;37.516;2023-04-25T01:45:43;55.17;43.77;71.28;;
74260;Laerm;62630;55.874;37.516;2023-04-25T01:48:10;59.31;43.87;72.13;;
74260;Laerm;62630;55.874;37.516;2023-04-25T01:50:37;57.06;42.62;74.15;;
74260;Laerm;62630;55.874;37.516;2023-04-25T01:53:03;51.93;43.42;61.47;;
74260;Laerm;62630;55.874;37.516;2023-04-25T01:55:29;51.74;44.48;66.36;;
74260;Laerm;62630;55.874;37.516;2023-04-25T01:57:54;59.67;43.95;73.80;;
74260;Laerm;62630;55.874;37.516;2023-04-25T02:00:20;60.44;43.78;81.95;;
74260;Laerm;62630;55.874;37.516;2023-04-25T02:02:46;54.94;44.84;69.41;;
74260;Laerm;62630;55.874;37.516;2023-04-25T02:05:11;59.03;45.69;72.24;;
74260;Laerm;62630;55.874;37.516;2023-04-25T02:07:37;60.74;46.49;76.84;;
74260;Laerm;62630;55.874;37.516;2023-04-25T02:10:03;58.63;45.04;73.90;;
74260;Laerm;62630;55.874;37.516;2023-04-25T02:12:29;56.30;46.52;69.39;;
74260;Laerm;62630;55.874;37.516;2023-04-25T02:14:54;57.16;44.37;72.76;;
74260;Laerm;62630;55.874;37.516;2023-04-25T02:17:20;52.45;46.42;60.04;;
74260;Laerm;62630;55.874;37.516;2023-04-25T02:19:46;59.10;46.49;73.39;;
74260;Laerm;62630;55.874;37.516;2023-04-25T02:22:12;53.93;46.49;68.49;;
74260;Laerm;62630;55.874;37.516;2023-04-25T02:24:38;60.62;46.82;73.30;;
74260;Laerm;62630;55.874;37.516;2023-04-25T02:27:04;53.74;46.72;65.72;;
74260;Laerm;62630;55.874;37.516;2023-04-25T02:29:30;58.69;47.57;69.07;;
74260;Laerm;62630;55.874;37.516;2023-04-25T02:31:55;54.44;48.51;65.69;;
74260;Laerm;62630;55.874;37.516;2023-04-25T02:34:21;66.94;48.26;84.43;;
74260;Laerm;62630;55.874;37.516;2023-04-25T02:36:48;66.41;48.48;82.15;;
74260;Laerm;62630;55.874;37.516;2023-04-25T02:39:13;61.72;48.54;84.00;;
74260;Laerm;62630;55.874;37.516;2023-04-25T02:41:39;59.60;49.69;71.04;;
74260;Laerm;62630;55.874;37.516;2023-04-25T02:44:04;57.44;49.27;69.84;;
74260;Laerm;62630;55.874;37.516;2023-04-25T02:46:30;57.91;48.37;70.97;;
74260;Laerm;62630;55.874;37.516;2023-04-25T02:48:55;56.59;49.42;66.29;;
74260;Laerm;62630;55.874;37.516;2023-04-25T02:51:21;60.63;48.52;69.27;;
74260;Laerm;62630;55.874;37.516;2023-04-25T02:53:46;58.65;48.74;70.81;;
74260;Laerm;62630;55.874;37.516;2023-04-25T02:56:12;60.31;48.61;69.91;;
74260;Laerm;62630;55.874;37.516;2023-04-25T02:58:37;63.01;48.25;81.69;;
74260;Laerm;62630;55.874;37.516;2023-04-25T03:01:03;57.83;48.48;72.38;;
74260;Laerm;62630;55.874;37.516;2023-04-25T03:03:28;60.62;48.17;72.50;;
74260;Laerm;62630;55.874;37.516;2023-04-25T03:05:54;61.99;50.43;72.37;;
74260;Laerm;62630;55.874;37.516;2023-04-25T03:08:20;61.59;49.04;76.62;;
74260;Laerm;62630;55.874;37.516;2023-04-25T03:10:45;59.95;48.51;69.66;;
74260;Laerm;62630;55.874;37.516;2023-04-25T03:13:11;59.98;47.43;71.73;;
74260;Laerm;62630;55.874;37.516;2023-04-25T03:15:39;59.57;48.62;70.91;;
74260;Laerm;62630;55.874;37.516;2023-04-25T03:18:07;57.93;48.32;69.43;;
74260;Laerm;62630;55.874;37.516;2023-04-25T03:20:32;59.71;48.72;68.59;;
74260;Laerm;62630;55.874;37.516;2023-04-25T03:22:58;60.77;51.97;70.42;;
74260;Laerm;62630;55.874;37.516;2023-04-25T03:25:23;62.32;50.71;71.38;;
74260;Laerm;62630;55.874;37.516;2023-04-25T03:27:49;63.36;53.52;71.89;;
74260;Laerm;62630;55.874;37.516;2023-04-25T03:30:15;58.89;49.88;68.98;;
74260;Laerm;62630;55.874;37.516;2023-04-25T03:32:40;62.82;53.77;74.68;;
74260;Laerm;62630;55.874;37.516;2023-04-25T03:35:06;62.54;51.97;74.83;;
74260;Laerm;62630;55.874;37.516;2023-04-25T03:37:31;62.74;51.47;73.44;;
74260;Laerm;62630;55.874;37.516;2023-04-25T03:39:57;63.68;54.50;73.89;;
74260;Laerm;62630;55.874;37.516;2023-04-25T03:42:22;61.77;53.94;72.30;;
74260;Laerm;62630;55.874;37.516;2023-04-25T03:44:49;61.38;51.14;71.91;;
74260;Laerm;62630;55.874;37.516;2023-04-25T03:47:15;63.12;54.65;69.74;;
74260;Laerm;62630;55.874;37.516;2023-04-25T03:49:41;61.31;51.41;69.42;;
74260;Laerm;62630;55.874;37.516;2023-04-25T03:52:07;62.18;53.06;73.10;;
74260;Laerm;62630;55.874;37.516;2023-04-25T03:54:32;62.75;50.83;75.80;;
74260;Laerm;62630;55.874;37.516;2023-04-25T03:56:58;61.59;52.21;69.14;;
74260;Laerm;62630;55.874;37.516;2023-04-25T03:59:23;62.17;52.08;72.14;;
74260;Laerm;62630;55.874;37.516;2023-04-25T04:01:50;59.41;50.35;66.74;;
74260;Laerm;62630;55.874;37.516;2023-04-25T04:04:15;64.66;55.56;73.89;;
74260;Laerm;62630;55.874;37.516;2023-04-25T04:06:41;64.47;51.64;73.57;;
74260;Laerm;62630;55.874;37.516;2023-04-25T04:09:07;63.89;52.56;71.41;;
74260;Laerm;62630;55.874;37.516;2023-04-25T04:11:38;62.69;51.35;71.54;;
74260;Laerm;62630;55.874;37.516;2023-04-25T04:14:07;64.24;53.29;71.28;;
74260;Laerm;62630;55.874;37.516;2023-04-25T04:16:33;62.93;54.00;71.03;;
74260;Laerm;62630;55.874;37.516;2023-04-25T04:18:59;68.68;53.69;82.65;;
74260;Laerm;62630;55.874;37.516;2023-04-25T04:21:24;62.54;51.57;71.29;;
74260;Laerm;62630;55.874;37.516;2023-04-25T04:23:52;63.07;54.31;69.92;;
74260;Laerm;62630;55.874;37.516;2023-04-25T04:26:20;63.69;54.68;71.52;;
74260;Laerm;62630;55.874;37.516;2023-04-25T04:28:49;64.71;55.27;85.08;;
74260;Laerm;62630;55.874;37.516;2023-04-25T04:31:16;64.54;55.73;76.69;;
74260;Laerm;62630;55.874;37.516;2023-04-25T04:33:44;64.37;57.48;73.72;;
74260;Laerm;62630;55.874;37.516;2023-04-25T04:36:11;62.20;54.82;68.30;;
74260;Laerm;62630;55.874;37.516;2023-04-25T04:38:36;63.35;55.88;72.48;;
74260;Laerm;62630;55.874;37.516;2023-04-25T04:41:02;63.86;55.87;79.77;;
74260;Laerm;62630;55.874;37.516;2023-04-25T04:43:28;65.24;57.24;75.59;;
74260;Laerm;62630;55.874;37.516;2023-04-25T04:45:55;63.11;55.64;69.51;;
74260;Laerm;62630;55.874;37.516;2023-04-25T04:48:23;62.68;55.56;75.24;;
74260;Laerm;62630;55.874;37.516;2023-04-25T04:50:49;67.59;57.05;77.42;;
74260;Laerm;62630;55.874;37.516;2023-04-25T04:53:15;64.07;54.28;80.56;;
74260;Laerm;62630;55.874;37.516;2023-04-25T04:55:40;66.70;57.00;77.09;;
74260;Laerm;62630;55.874;37.516;2023-04-25T04:58:09;64.47;55.99;73.24;;
74260;Laerm;62630;55.874;37.516;2023-04-25T05:00:34;63.61;54.26;73.14;;
74260;Laerm;62630;55.874;37.516;2023-04-25T05:03:00;65.09;55.65;75.19;;
74260;Laerm;62630;55.874;37.516;2023-04-25T05:05:25;64.06;54.97;79.50;;
74260;Laerm;62630;55.874;37.516;2023-04-25T05:07:51;63.37;53.97;72.52;;
74260;Laerm;62630;55.874;37.516;2023-04-25T05:10:20;64.91;54.52;76.02;;
74260;Laerm;62630;55.874;37.516;2023-04-25T05:12:48;65.43;55.35;76.23;;
74260;Laerm;62630;55.874;37.516;2023-04-25T05:15:14;64.37;54.53;74.83;;
74260;Laerm;62630;55.874;37.516;2023-04-25T05:17:39;63.89;56.04;70.46;;
74260;Laerm;62630;55.874;37.516;2023-04-25T05:20:06;65.57;57.43;78.45;;
74260;Laerm;62630;55.874;37.516;2023-04-25T05:22:34;67.00;57.13;76.48;;
74260;Laerm;62630;55.874;37.516;2023-04-25T05:24:59;64.49;54.33;71.46;;
74260;Laerm;62630;55.874;37.516;2023-04-25T05:27:25;66.84;58.67;79.37;;
74260;Laerm;62630;55.874;37.516;2023-04-25T05:29:50;63.56;55.40;81.20;;
74260;Laerm;62630;55.874;37.516;2023-04-25T05:32:16;63.88;55.87;72.54;;
74260;Laerm;62630;55.874;37.516;2023-04-25T05:34:42;64.81;56.96;71.30;;
74260;Laerm;62630;55.874;37.516;2023-04-25T05:37:08;66.67;54.72;83.29;;
74260;Laerm;62630;55.874;37.516;2023-04-25T05:39:34;64.29;55.93;86.67;;
74260;Laerm;62630;55.874;37.516;2023-04-25T05:41:59;63.91;55.86;76.00;;
74260;Laerm;62630;55.874;37.516;2023-04-25T05:44:28;65.64;57.12;76.77;;
74260;Laerm;62630;55.874;37.516;2023-04-25T05:46:53;62.98;53.12;74.58;;
74260;Laerm;62630;55.874;37.516;2023-04-25T05:49:19;73.37;58.47;89.42;;
74260;Laerm;62630;55.874;37.516;2023-04-25T05:51:44;64.22;55.76;70.93;;
74260;Laerm;62630;55.874;37.516;2023-04-25T05:54:10;62.35;53.40;71.37;;
74260;Laerm;62630;55.874;37.516;2023-04-25T05:56:36;66.58;56.51;77.64;;
74260;Laerm;62630;55.874;37.516;2023-04-25T05:59:01;65.89;57.68;76.83;;
74260;Laerm;62630;55.874;37.516;2023-04-25T06:01:27;65.55;57.49;80.94;;
74260;Laerm;62630;55.874;37.516;2023-04-25T06:03:52;65.36;54.15;79.92;;
74260;Laerm;62630;55.874;37.516;2023-04-25T06:06:18;67.77;53.97;81.21;;
74260;Laerm;62630;55.874;37.516;2023-04-25T06:08:44;68.96;54.11;86.32;;
74260;Laerm;62630;55.874;37.516;2023-04-25T06:11:10;63.53;51.90;74.19;;
74260;Laerm;62630;55.874;37.516;2023-04-25T06:13:35;62.44;52.05;72.20;;
74260;Laerm;62630;55.874;37.516;2023-04-25T06:16:01;64.06;53.11;72.45;;
74260;Laerm;62630;55.874;37.516;2023-04-25T06:18:26;64.49;54.78;72.35;;
74260;Laerm;62630;55.874;37.516;2023-04-25T06:20:52;64.31;52.34;77.98;;
74260;Laerm;62630;55.874;37.516;2023-04-25T06:23:18;62.16;54.30;70.76;;
74260;Laerm;62630;55.874;37.516;2023-04-25T06:25:43;66.06;53.42;74.15;;
74260;Laerm;62630;55.874;37.516;2023-04-25T06:28:09;67.37;53.22;77.81;;
74260;Laerm;62630;55.874;37.516;2023-04-25T06:30:34;66.14;57.24;79.07;;
74260;Laerm;62630;55.874;37.516;2023-04-25T06:33:00;64.78;53.32;73.06;;
74260;Laerm;62630;55.874;37.516;2023-04-25T06:35:25;69.00;56.45;81.61;;
74260;Laerm;62630;55.874;37.516;2023-04-25T06:37:51;65.17;54.34;76.57;;
74260;Laerm;62630;55.874;37.516;2023-04-25T06:40:17;66.41;51.78;84.58;;
74260;Laerm;62630;55.874;37.516;2023-04-25T06:42:42;63.63;56.02;71.43;;
74260;Laerm;62630;55.874;37.516;2023-04-25T06:45:11;62.50;53.16;74.16;;
74260;Laerm;62630;55.874;37.516;2023-04-25T06:47:36;62.77;52.24;70.61;;
74260;Laerm;62630;55.874;37.516;2023-04-25T06:50:02;65.23;52.50;79.04;;
74260;Laerm;62630;55.874;37.516;2023-04-25T06:52:28;64.48;55.78;72.00;;
74260;Laerm;62630;55.874;37.516;2023-04-25T06:54:54;65.15;54.75;76.31;;
74260;Laerm;62630;55.874;37.516;2023-04-25T06:57:19;66.06;57.74;84.46;;
74260;Laerm;62630;55.874;37.516;2023-04-25T06:59:45;71.78;57.13;88.44;;
74260;Laerm;62630;55.874;37.516;2023-04-25T07:02:11;64.29;55.54;74.71;;
74260;Laerm;62630;55.874;37.516;2023-04-25T07:04:36;64.42;52.63;73.22;;
74260;Laerm;62630;55.874;37.516;2023-04-25T07:07:03;63.48;50.82;71.83;;
74260;Laerm;62630;55.874;37.516;2023-04-25T07:09:29;65.64;55.23;80.42;;
74260;Laerm;62630;55.874;37.516;2023-04-25T07:11:58;64.24;53.14;77.47;;
74260;Laerm;62630;55.874;37.516;2023-04-25T07:14:24;64.30;54.78;75.37;;
74260;Laerm;62630;55.874;37.516;2023-04-25T07:16:50;65.93;52.91;85.76;;
74260;Laerm;62630;55.874;37.516;2023-04-25T07:19:16;64.09;53.43;74.34;;
74260;Laerm;62630;55.874;37.516;2023-04-25T07:21:47;66.70;49.69;85.04;;
74260;Laerm;62630;55.874;37.516;2023-04-25T07:24:16;63.80;53.45;73.74;;
74260;Laerm;62630;55.874;37.516;2023-04-25T07:26:41;64.35;56.93;77.47;;
74260;Laerm;62630;55.874;37.516;2023-04-25T07:29:08;64.28;51.58;73.43;;
74260;Laerm;62630;55.874;37.516;2023-04-25T07:31:39;65.81;55.40;74.84;;
74260;Laerm;62630;55.874;37.516;2023-04-25T07:34:07;67.39;52.66;79.56;;
74260;Laerm;62630;55.874;37.516;2023-04-25T07:36:35;63.16;52.65;75.20;;
74260;Laerm;62630;55.874;37.516;2023-04-25T07:39:03;64.41;51.98;80.43;;
74260;Laerm;62630;55.874;37.516;2023-04-25T07:41:32;63.67;52.52;75.16;;
74260;Laerm;62630;55.874;37.516;2023-04-25T07:44:00;61.33;50.69;71.49;;
74260;Laerm;62630;55.874;37.516;2023-04-25T07:46:27;62.63;51.78;78.28;;
74260;Laerm;62630;55.874;37.516;2023-04-25T07:48:53;66.03;57.26;84.62;;
74260;Laerm;62630;55.874;37.516;2023-04-25T07:51:18;64.81;58.05;83.65;;
74260;Laerm;62630;55.874;37.516;2023-04-25T07:53:47;65.70;55.29;78.86;;
74260;Laerm;62630;55.874;37.516;2023-04-25T07:56:13;65.55;54.67;76.91;;
74260;Laerm;62630;55.874;37.516;2023-04-25T07:58:38;62.62;52.99;72.52;;
74260;Laerm;62630;55.874;37.516;2023-04-25T08:01:04;63.03;53.78;71.37;;
74260;Laerm;62630;55.874;37.516;2023-04-25T08:03:29;63.64;52.17;74.64;;
74260;Laerm;62630;55.874;37.516;2023-04-25T08:05:55;63.93;54.79;72.55;;
74260;Laerm;62630;55.874;37.516;2023-04-25T08:08:21;63.14;50.94;79.51;;
74260;Laerm;62630;55.874;37.516;2023-04-25T08:10:50;64.08;49.74;78.17;;
74260;Laerm;62630;55.874;37.516;2023-04-25T08:13:15;64.66;52.01;77.69;;
74260;Laerm;62630;55.874;37.516;2023-04-25T08:15:42;64.62;53.22;85.10;;
74260;Laerm;62630;55.874;37.516;2023-04-25T08:18:08;64.73;53.92;73.34;;
74260;Laerm;62630;55.874;37.516;2023-04-25T08:20:33;62.88;53.61;70.06;;
74260;Laerm;62630;55.874;37.516;2023-04-25T08:22:59;63.68;55.26;70.65;;
74260;Laerm;62630;55.874;37.516;2023-04-25T08:25:24;62.99;51.61;72.21;;
74260;Laerm;62630;55.874;37.516;2023-04-25T08:27:50;63.15;50.55;71.10;;
74260;Laerm;62630;55.874;37.516;2023-04-25T08:30:16;63.87;52.69;72.74;;
74260;Laerm;62630;55.874;37.516;2023-04-25T08:32:41;64.46;53.59;73.86;;
74260;Laerm;62630;55.874;37.516;2023-04-25T08:35:08;67.83;56.09;80.87;;
74260;Laerm;62630;55.874;37.516;2023-04-25T08:37:33;62.77;53.34;72.98;;
74260;Laerm;62630;55.874;37.516;2023-04-25T08:39:59;63.79;54.00;72.63;;
74260;Laerm;62630;55.874;37.516;2023-04-25T08:42:26;64.95;56.92;81.41;;
74260;Laerm;62630;55.874;37.516;2023-04-25T08:44:53;63.05;53.69;70.74;;
74260;Laerm;62630;55.874;37.516;2023-04-25T08:47:23;62.31;53.07;72.26;;
74260;Laerm;62630;55.874;37.516;2023-04-25T08:49:52;63.62;53.61;70.63;;
74260;Laerm;62630;55.874;37.516;2023-04-25T08:52:22;68.21;51.73;83.14;;
74260;Laerm;62630;55.874;37.516;2023-04-25T08:54:49;63.96;54.34;77.27;;
74260;Laerm;62630;55.874;37.516;2023-04-25T08:57:17;63.26;52.03;72.93;;
74260;Laerm;62630;55.874;37.516;2023-04-25T08:59:43;65.70;54.88;74.83;;
74260;Laerm;62630;55.874;37.516;2023-04-25T09:02:11;69.93;57.93;79.10;;
74260;Laerm;62630;55.874;37.516;2023-04-25T09:04:43;63.21;51.62;73.94;;
74260;Laerm;62630;55.874;37.516;2023-04-25T09:07:09;62.67;52.17;79.07;;
74260;Laerm;62630;55.874;37.516;2023-04-25T09:09:34;63.66;53.50;75.67;;
74260;Laerm;62630;55.874;37.516;2023-04-25T09:12:01;67.32;57.57;78.66;;
74260;Laerm;62630;55.874;37.516;2023-04-25T09:14:26;63.61;51.71;74.54;;
74260;Laerm;62630;55.874;37.516;2023-04-25T09:19:26;62.51;54.13;73.23;;
74260;Laerm;62630;55.874;37.516;2023-04-25T09:21:55;63.07;50.70;73.82;;
74260;Laerm;62630;55.874;37.516;2023-04-25T09:24:44;70.29;54.46;82.65;;
74260;Laerm;62630;55.874;37.516;2023-04-25T09:27:12;66.97;56.80;77.09;;
74260;Laerm;62630;55.874;37.516;2023-04-25T09:29:39;64.68;54.59;72.40;;
74260;Laerm;62630;55.874;37.516;2023-04-25T09:32:15;64.33;54.29;72.27;;
74260;Laerm;62630;55.874;37.516;2023-04-25T09:35:01;63.32;51.90;72.02;;
74260;Laerm;62630;55.874;37.516;2023-04-25T09:37:29;63.82;54.52;74.10;;
74260;Laerm;62630;55.874;37.516;2023-04-25T09:39:57;62.74;52.25;75.09;;
74260;Laerm;62630;55.874;37.516;2023-04-25T09:42:27;67.56;57.45;82.99;;
74260;Laerm;62630;55.874;37.516;2023-04-25T09:44:55;65.67;57.18;76.19;;
74260;Laerm;62630;55.874;37.516;2023-04-25T09:47:24;64.83;54.38;73.36;;
74260;Laerm;62630;55.874;37.516;2023-04-25T09:49:51;65.23;55.88;73.33;;
74260;Laerm;62630;55.874;37.516;2023-04-25T09:52:18;67.21;51.61;80.19;;
74260;Laerm;62630;55.874;37.516;2023-04-25T09:54:48;64.78;55.44;73.83;;
74260;Laerm;62630;55.874;37.516;2023-04-25T09:59:47;63.15;50.92;74.79;;
74260;Laerm;62630;55.874;37.516;2023-04-25T10:02:17;65.27;51.94;76.55;;
74260;Laerm;62630;55.874;37.516;2023-04-25T10:04:47;72.22;52.97;87.49;;
74260;Laerm;62630;55.874;37.516;2023-04-25T10:07:14;63.31;52.76;76.30;;
74260;Laerm;62630;55.874;37.516;2023-04-25T10:09:40;65.02;56.59;76.88;;
74260;Laerm;62630;55.874;37.516;2023-04-25T10:12:13;63.89;54.95;78.06;;
74260;Laerm;62630;55.874;37.516;2023-04-25T10:14:49;65.84;57.55;82.47;;
74260;Laerm;62630;55.874;37.516;2023-04-25T10:17:14;62.33;52.67;70.08;;
74260;Laerm;62630;55.874;37.516;2023-04-25T10:19:40;68.52;54.81;82.97;;
74260;Laerm;62630;55.874;37.516;2023-04-25T10:24:55;67.62;53.99;82.77;;
74260;Laerm;62630;55.874;37.516;2023-04-25T10:27:21;63.38;54.57;71.86;;
74260;Laerm;62630;55.874;37.516;2023-04-25T10:30:03;63.90;56.52;79.43;;
74260;Laerm;62630;55.874;37.516;2023-04-25T10:32:32;63.42;54.93;72.45;;
74260;Laerm;62630;55.874;37.516;2023-04-25T10:37:38;68.24;64.02;72.99;;
74260;Laerm;62630;55.874;37.516;2023-04-25T10:40:10;68.26;60.47;78.86;;
74260;Laerm;62630;55.874;37.516;2023-04-25T10:42:36;69.79;62.48;88.98;;
74260;Laerm;62630;55.874;37.516;2023-04-25T10:45:05;68.94;60.92;73.72;;
74260;Laerm;62630;55.874;37.516;2023-04-25T10:47:43;70.02;65.78;78.61;;
74260;Laerm;62630;55.874;37.516;2023-04-25T10:50:14;69.62;65.28;75.52;;
74260;Laerm;62630;55.874;37.516;2023-04-25T10:52:41;69.45;62.95;84.58;;
74260;Laerm;62630;55.874;37.516;2023-04-25T10:55:07;69.08;62.47;78.40;;
74260;Laerm;62630;55.874;37.516;2023-04-25T10:57:40;74.56;66.44;89.61;;
74260;Laerm;62630;55.874;37.516;2023-04-25T11:02:42;68.24;59.68;85.92;;
74260;Laerm;62630;55.874;37.516;2023-04-25T11:05:23;65.27;57.04;85.11;;
74260;Laerm;62630;55.874;37.516;2023-04-25T11:07:54;65.70;57.34;75.22;;
74260;Laerm;62630;55.874;37.516;2023-04-25T11:10:27;63.87;55.86;76.99;;
74260;Laerm;62630;55.874;37.516;2023-04-25T11:12:53;63.93;53.21;79.60;;
74260;Laerm;62630;55.874;37.516;2023-04-25T11:15:18;62.80;52.59;74.81;;
74260;Laerm;62630;55.874;37.516;2023-04-25T11:17:44;68.51;56.93;82.05;;
74260;Laerm;62630;55.874;37.516;2023-04-25T11:20:12;65.69;54.91;79.75;;
74260;Laerm;62630;55.874;37.516;2023-04-25T11:22:38;63.07;55.15;77.56;;
74260;Laerm;62630;55.874;37.516;2023-04-25T11:25:07;66.54;57.54;75.76;;
74260;Laerm;62630;55.874;37.516;2023-04-25T11:27:33;68.33;62.64;75.75;;
74260;Laerm;62630;55.874;37.516;2023-04-25T11:30:10;66.53;62.11;70.95;;
74260;Laerm;62630;55.874;37.516;2023-04-25T11:32:36;67.03;58.69;74.28;;
74260;Laerm;62630;55.874;37.516;2023-04-25T11:35:02;62.23;54.43;69.28;;
74260;Laerm;62630;55.874;37.516;2023-04-25T11:37:28;63.88;53.21;77.23;;
74260;Laerm;62630;55.874;37.516;2023-04-25T11:39:53;65.15;54.38;79.29;;
74260;Laerm;62630;55.874;37.516;2023-04-25T11:42:19;66.75;55.70;81.98;;
74260;Laerm;62630;55.874;37.516;2023-04-25T11:44:45;64.65;54.03;75.92;;
74260;Laerm;62630;55.874;37.516;2023-04-25T11:47:10;66.65;54.45;72.52;;
74260;Laerm;62630;55.874;37.516;2023-04-25T11:49:36;68.10;62.32;74.24;;
74260;Laerm;62630;55.874;37.516;2023-04-25T11:52:02;68.96;62.33;90.75;;
74260;Laerm;62630;55.874;37.516;2023-04-25T11:54:27;64.93;54.77;80.14;;
74260;Laerm;62630;55.874;37.516;2023-04-25T11:56:53;63.66;55.59;71.23;;
74260;Laerm;62630;55.874;37.516;2023-04-25T11:59:23;63.21;53.15;70.46;;
74260;Laerm;62630;55.874;37.516;2023-04-25T12:01:50;68.65;53.50;83.74;;
74260;Laerm;62630;55.874;37.516;2023-04-25T12:04:23;65.27;55.57;79.34;;
74260;Laerm;62630;55.874;37.516;2023-04-25T12:06:50;63.11;52.37;77.71;;
74260;Laerm;62630;55.874;37.516;2023-04-25T12:09:19;63.39;52.79;73.29;;
74260;Laerm;62630;55.874;37.516;2023-04-25T12:11:58;73.16;55.58;91.13;;
74260;Laerm;62630;55.874;37.516;2023-04-25T12:14:26;62.71;54.22;72.37;;
74260;Laerm;62630;55.874;37.516;2023-04-25T12:16:54;66.80;55.33;79.46;;
74260;Laerm;62630;55.874;37.516;2023-04-25T12:19:21;64.18;52.10;81.11;;
74260;Laerm;62630;55.874;37.516;2023-04-25T12:21:48;65.94;55.01;74.65;;
74260;Laerm;62630;55.874;37.516;2023-04-25T12:24:24;67.22;54.98;85.23;;
74260;Laerm;62630;55.874;37.516;2023-04-25T12:29:24;65.76;53.05;83.92;;
74260;Laerm;62630;55.874;37.516;2023-04-25T12:31:51;62.80;53.62;72.34;;
74260;Laerm;62630;55.874;37.516;2023-04-25T12:34:20;67.07;54.26;80.05;;
74260;Laerm;62630;55.874;37.516;2023-04-25T12:36:46;64.81;55.31;72.50;;
74260;Laerm;62630;55.874;37.516;2023-04-25T12:39:20;63.20;51.68;72.53;;
74260;Laerm;62630;55.874;37.516;2023-04-25T12:41:48;63.95;51.84;73.91;;
74260;Laerm;62630;55.874;37.516;2023-04-25T12:44:13;63.82;51.08;73.58;;
74260;Laerm;62630;55.874;37.516;2023-04-25T12:46:40;62.25;52.26;69.90;;
74260;Laerm;62630;55.874;37.516;2023-04-25T12:49:07;67.79;54.49;86.56;;
74260;Laerm;62630;55.874;37.516;2023-04-25T12:51:34;63.31;52.46;81.95;;
74260;Laerm;62630;55.874;37.516;2023-04-25T12:54:00;63.16;52.20;70.55;;
74260;Laerm;62630;55.874;37.516;2023-04-25T12:56:29;61.89;51.72;71.88;;
74260;Laerm;62630;55.874;37.516;2023-04-25T12:58:55;62.54;50.02;74.01;;
74260;Laerm;62630;55.874;37.516;2023-04-25T13:01:21;64.33;54.54;76.65;;
74260;Laerm;62630;55.874;37.516;2023-04-25T13:03:48;65.60;55.85;81.08;;
74260;Laerm;62630;55.874;37.516;2023-04-25T13:06:16;64.67;53.51;73.72;;
74260;Laerm;62630;55.874;37.516;2023-04-25T13:08:41;63.24;55.99;70.74;;
74260;Laerm;62630;55.874;37.516;2023-04-25T13:11:08;62.93;52.11;72.04;;
74260;Laerm;62630;55.874;37.516;2023-04-25T13:13:33;65.28;52.86;75.68;;
74260;Laerm;62630;55.874;37.516;2023-04-25T13:16:03;62.77;49.78;72.41;;
74260;Laerm;62630;55.874;37.516;2023-04-25T13:18:30;64.16;56.70;72.03;;
74260;Laerm;62630;55.874;37.516;2023-04-25T13:20:56;65.58;53.15;81.35;;
74260;Laerm;62630;55.874;37.516;2023-04-25T13:23:24;64.71;52.39;78.80;;
74260;Laerm;62630;55.874;37.516;2023-04-25T13:25:50;63.50;50.19;73.25;;
74260;Laerm;62630;55.874;37.516;2023-04-25T13:28:18;63.00;50.71;79.09;;
74260;Laerm;62630;55.874;37.516;2023-04-25T13:30:44;67.35;54.53;85.93;;
74260;Laerm;62630;55.874;37.516;2023-04-25T13:33:09;64.69;52.68;71.99;;
74260;Laerm;62630;55.874;37.516;2023-04-25T13:35:36;68.03;57.06;80.30;;
74260;Laerm;62630;55.874;37.516;2023-04-25T13:38:03;65.70;54.18;75.19;;
74260;Laerm;62630;55.874;37.516;2023-04-25T13:40:29;63.68;55.86;74.20;;
74260;Laerm;62630;55.874;37.516;2023-04-25T13:42:55;63.20;52.13;69.35;;
74260;Laerm;62630;55.874;37.516;2023-04-25T13:45:21;61.91;51.29;72.02;;